sensor_id;sensor_type;location;lat;lon;timestamp;P1;durP1;ratioP1;P2;durP2;ratioP2
64842;SDS011;51310;52.198;5.422;2023-04-15T00:01:24;11.00;;;4.23;;
64842;SDS011;51310;52.198;5.422;2023-04-15T00:03:51;7.15;;;4.47;;
64842;SDS011;51310;52.198;5.422;2023-04-15T00:06:18;11.02;;;4.60;;
64842;SDS011;51310;52.198;5.422;2023-04-15T00:08:45;10.38;;;4.35;;
64842;SDS011;51310;52.198;5.422;2023-04-15T00:11:12;9.63;;;4.63;;
64842;SDS011;51310;52.198;5.422;2023-04-15T00:13:38;10.02;;;4.50;;
64842;SDS011;51310;52.198;5.422;2023-04-15T00:16:04;8.23;;;4.10;;
64842;SDS011;51310;52.198;5.422;2023-04-15T00:18:32;10.88;;;4.53;;
64842;SDS011;51310;52.198;5.422;2023-04-15T00:20:58;11.40;;;4.90;;
64842;SDS011;51310;52.198;5.422;2023-04-15T00:23:24;12.40;;;4.87;;
64842;SDS011;51310;52.198;5.422;2023-04-15T00:25:50;7.65;;;4.75;;
64842;SDS011;51310;52.198;5.422;2023-04-15T00:28:16;10.27;;;4.78;;
64842;SDS011;51310;52.198;5.422;2023-04-15T00:30:43;11.68;;;5.35;;
64842;SDS011;51310;52.198;5.422;2023-04-15T00:33:09;10.32;;;4.47;;
64842;SDS011;51310;52.198;5.422;2023-04-15T00:35:35;9.80;;;4.75;;
64842;SDS011;51310;52.198;5.422;2023-04-15T00:38:01;11.23;;;4.57;;
64842;SDS011;51310;52.198;5.422;2023-04-15T00:40:32;11.55;;;5.30;;
64842;SDS011;51310;52.198;5.422;2023-04-15T00:42:58;11.33;;;5.47;;
64842;SDS011;51310;52.198;5.422;2023-04-15T00:45:24;13.63;;;6.18;;
64842;SDS011;51310;52.198;5.422;2023-04-15T00:47:52;11.95;;;6.32;;
64842;SDS011;51310;52.198;5.422;2023-04-15T00:50:18;11.05;;;5.75;;
64842;SDS011;51310;52.198;5.422;2023-04-15T00:52:44;10.38;;;5.10;;
64842;SDS011;51310;52.198;5.422;2023-04-15T00:55:10;9.63;;;4.73;;
64842;SDS011;51310;52.198;5.422;2023-04-15T00:57:36;10.00;;;4.87;;
64842;SDS011;51310;52.198;5.422;2023-04-15T01:00:03;8.43;;;4.60;;
64842;SDS011;51310;52.198;5.422;2023-04-15T01:02:32;8.25;;;4.03;;
64842;SDS011;51310;52.198;5.422;2023-04-15T01:04:59;8.00;;;4.78;;
64842;SDS011;51310;52.198;5.422;2023-04-15T01:07:25;10.70;;;4.75;;
64842;SDS011;51310;52.198;5.422;2023-04-15T01:09:51;6.65;;;4.20;;
64842;SDS011;51310;52.198;5.422;2023-04-15T01:12:17;9.00;;;4.63;;
64842;SDS011;51310;52.198;5.422;2023-04-15T01:14:44;10.50;;;4.43;;
64842;SDS011;51310;52.198;5.422;2023-04-15T01:17:10;10.55;;;4.97;;
64842;SDS011;51310;52.198;5.422;2023-04-15T01:19:37;8.68;;;5.13;;
64842;SDS011;51310;52.198;5.422;2023-04-15T01:22:03;8.98;;;5.13;;
64842;SDS011;51310;52.198;5.422;2023-04-15T01:24:30;11.23;;;5.43;;
64842;SDS011;51310;52.198;5.422;2023-04-15T01:26:58;10.40;;;5.30;;
64842;SDS011;51310;52.198;5.422;2023-04-15T01:29:23;11.50;;;5.97;;
64842;SDS011;51310;52.198;5.422;2023-04-15T01:31:52;10.90;;;5.18;;
64842;SDS011;51310;52.198;5.422;2023-04-15T01:34:20;7.90;;;4.57;;
64842;SDS011;51310;52.198;5.422;2023-04-15T01:36:46;10.35;;;5.10;;
64842;SDS011;51310;52.198;5.422;2023-04-15T01:39:12;9.30;;;5.13;;
64842;SDS011;51310;52.198;5.422;2023-04-15T01:41:39;12.23;;;4.97;;
64842;SDS011;51310;52.198;5.422;2023-04-15T01:44:06;9.45;;;4.93;;
64842;SDS011;51310;52.198;5.422;2023-04-15T01:46:32;8.82;;;5.88;;
64842;SDS011;51310;52.198;5.422;2023-04-15T01:48:58;9.98;;;6.20;;
64842;SDS011;51310;52.198;5.422;2023-04-15T01:51:24;8.63;;;4.90;;
64842;SDS011;51310;52.198;5.422;2023-04-15T01:53:51;13.18;;;4.95;;
64842;SDS011;51310;52.198;5.422;2023-04-15T01:56:17;8.32;;;5.18;;
64842;SDS011;51310;52.198;5.422;2023-04-15T01:58:43;9.03;;;5.13;;
64842;SDS011;51310;52.198;5.422;2023-04-15T02:01:08;10.60;;;5.38;;
64842;SDS011;51310;52.198;5.422;2023-04-15T02:03:35;10.00;;;5.68;;
64842;SDS011;51310;52.198;5.422;2023-04-15T02:06:01;13.13;;;5.25;;
64842;SDS011;51310;52.198;5.422;2023-04-15T02:08:28;8.93;;;5.28;;
64842;SDS011;51310;52.198;5.422;2023-04-15T02:10:54;13.20;;;5.97;;
64842;SDS011;51310;52.198;5.422;2023-04-15T02:13:20;7.10;;;5.35;;
64842;SDS011;51310;52.198;5.422;2023-04-15T02:15:46;11.75;;;5.45;;
64842;SDS011;51310;52.198;5.422;2023-04-15T02:18:13;15.32;;;5.93;;
64842;SDS011;51310;52.198;5.422;2023-04-15T02:20:40;11.90;;;6.30;;
64842;SDS011;51310;52.198;5.422;2023-04-15T02:23:07;13.33;;;6.47;;
64842;SDS011;51310;52.198;5.422;2023-04-15T02:25:33;10.77;;;5.80;;
64842;SDS011;51310;52.198;5.422;2023-04-15T02:27:59;13.20;;;5.80;;
64842;SDS011;51310;52.198;5.422;2023-04-15T02:30:25;10.23;;;5.30;;
64842;SDS011;51310;52.198;5.422;2023-04-15T02:32:51;11.43;;;5.78;;
64842;SDS011;51310;52.198;5.422;2023-04-15T02:35:16;10.70;;;6.07;;
64842;SDS011;51310;52.198;5.422;2023-04-15T02:37:45;12.27;;;5.78;;
64842;SDS011;51310;52.198;5.422;2023-04-15T02:40:11;10.83;;;6.20;;
64842;SDS011;51310;52.198;5.422;2023-04-15T02:42:38;11.00;;;6.00;;
64842;SDS011;51310;52.198;5.422;2023-04-15T02:45:05;10.18;;;6.10;;
64842;SDS011;51310;52.198;5.422;2023-04-15T02:47:32;10.88;;;6.05;;
64842;SDS011;51310;52.198;5.422;2023-04-15T02:50:03;12.93;;;6.13;;
64842;SDS011;51310;52.198;5.422;2023-04-15T02:52:31;9.43;;;5.88;;
64842;SDS011;51310;52.198;5.422;2023-04-15T02:54:56;9.80;;;5.53;;
64842;SDS011;51310;52.198;5.422;2023-04-15T02:57:27;10.03;;;6.27;;
64842;SDS011;51310;52.198;5.422;2023-04-15T02:59:55;11.70;;;6.40;;
64842;SDS011;51310;52.198;5.422;2023-04-15T03:02:21;10.25;;;6.55;;
64842;SDS011;51310;52.198;5.422;2023-04-15T03:04:47;10.23;;;6.30;;
64842;SDS011;51310;52.198;5.422;2023-04-15T03:07:13;10.48;;;6.43;;
64842;SDS011;51310;52.198;5.422;2023-04-15T03:09:38;13.45;;;6.72;;
64842;SDS011;51310;52.198;5.422;2023-04-15T03:12:05;9.13;;;5.87;;
64842;SDS011;51310;52.198;5.422;2023-04-15T03:14:31;12.38;;;6.63;;
64842;SDS011;51310;52.198;5.422;2023-04-15T03:16:56;13.73;;;7.10;;
64842;SDS011;51310;52.198;5.422;2023-04-15T03:19:23;11.85;;;6.45;;
64842;SDS011;51310;52.198;5.422;2023-04-15T03:21:49;9.70;;;6.30;;
64842;SDS011;51310;52.198;5.422;2023-04-15T03:24:16;9.63;;;6.28;;
64842;SDS011;51310;52.198;5.422;2023-04-15T03:26:42;11.88;;;7.00;;
64842;SDS011;51310;52.198;5.422;2023-04-15T03:29:08;11.03;;;6.60;;
64842;SDS011;51310;52.198;5.422;2023-04-15T03:31:34;9.00;;;6.43;;
64842;SDS011;51310;52.198;5.422;2023-04-15T03:33:59;14.73;;;7.57;;
64842;SDS011;51310;52.198;5.422;2023-04-15T03:36:25;10.53;;;6.50;;
64842;SDS011;51310;52.198;5.422;2023-04-15T03:38:54;12.10;;;6.60;;
64842;SDS011;51310;52.198;5.422;2023-04-15T03:41:20;13.65;;;6.43;;
64842;SDS011;51310;52.198;5.422;2023-04-15T03:43:46;12.53;;;6.70;;
64842;SDS011;51310;52.198;5.422;2023-04-15T03:46:12;10.97;;;6.60;;
64842;SDS011;51310;52.198;5.422;2023-04-15T03:48:37;13.50;;;6.57;;
64842;SDS011;51310;52.198;5.422;2023-04-15T03:51:03;12.83;;;6.70;;
64842;SDS011;51310;52.198;5.422;2023-04-15T03:53:29;12.15;;;6.07;;
64842;SDS011;51310;52.198;5.422;2023-04-15T03:55:54;13.73;;;6.65;;
64842;SDS011;51310;52.198;5.422;2023-04-15T03:58:20;10.93;;;6.20;;
64842;SDS011;51310;52.198;5.422;2023-04-15T04:00:46;13.07;;;6.50;;
64842;SDS011;51310;52.198;5.422;2023-04-15T04:03:12;12.60;;;6.53;;
64842;SDS011;51310;52.198;5.422;2023-04-15T04:05:37;10.70;;;6.05;;
64842;SDS011;51310;52.198;5.422;2023-04-15T04:08:05;11.07;;;6.45;;
64842;SDS011;51310;52.198;5.422;2023-04-15T04:10:31;12.48;;;6.25;;
64842;SDS011;51310;52.198;5.422;2023-04-15T04:12:57;11.10;;;6.43;;
64842;SDS011;51310;52.198;5.422;2023-04-15T04:15:22;11.35;;;7.03;;
64842;SDS011;51310;52.198;5.422;2023-04-15T04:17:48;11.13;;;6.63;;
64842;SDS011;51310;52.198;5.422;2023-04-15T04:20:14;12.70;;;7.07;;
64842;SDS011;51310;52.198;5.422;2023-04-15T04:22:40;14.15;;;7.30;;
64842;SDS011;51310;52.198;5.422;2023-04-15T04:25:06;11.43;;;6.87;;
64842;SDS011;51310;52.198;5.422;2023-04-15T04:27:34;12.45;;;7.38;;
64842;SDS011;51310;52.198;5.422;2023-04-15T04:30:00;13.70;;;7.60;;
64842;SDS011;51310;52.198;5.422;2023-04-15T04:32:26;12.13;;;6.90;;
64842;SDS011;51310;52.198;5.422;2023-04-15T04:34:52;13.17;;;7.83;;
64842;SDS011;51310;52.198;5.422;2023-04-15T04:37:17;13.00;;;7.03;;
64842;SDS011;51310;52.198;5.422;2023-04-15T04:39:43;16.63;;;7.10;;
64842;SDS011;51310;52.198;5.422;2023-04-15T04:42:08;11.43;;;7.60;;
64842;SDS011;51310;52.198;5.422;2023-04-15T04:44:34;13.10;;;7.20;;
64842;SDS011;51310;52.198;5.422;2023-04-15T04:47:00;11.70;;;7.40;;
64842;SDS011;51310;52.198;5.422;2023-04-15T04:49:26;12.25;;;7.65;;
64842;SDS011;51310;52.198;5.422;2023-04-15T04:51:51;12.88;;;7.82;;
64842;SDS011;51310;52.198;5.422;2023-04-15T04:54:17;11.38;;;7.28;;
64842;SDS011;51310;52.198;5.422;2023-04-15T04:56:43;15.17;;;7.37;;
64842;SDS011;51310;52.198;5.422;2023-04-15T04:59:08;12.98;;;7.03;;
64842;SDS011;51310;52.198;5.422;2023-04-15T05:01:34;16.67;;;7.85;;
64842;SDS011;51310;52.198;5.422;2023-04-15T05:04:00;14.98;;;7.05;;
64842;SDS011;51310;52.198;5.422;2023-04-15T05:06:26;12.93;;;7.45;;
64842;SDS011;51310;52.198;5.422;2023-04-15T05:08:54;12.25;;;7.18;;
64842;SDS011;51310;52.198;5.422;2023-04-15T05:11:20;12.55;;;7.70;;
64842;SDS011;51310;52.198;5.422;2023-04-15T05:13:46;12.37;;;7.33;;
64842;SDS011;51310;52.198;5.422;2023-04-15T05:16:12;15.80;;;7.68;;
64842;SDS011;51310;52.198;5.422;2023-04-15T05:18:37;13.40;;;7.40;;
64842;SDS011;51310;52.198;5.422;2023-04-15T05:21:03;10.77;;;7.18;;
64842;SDS011;51310;52.198;5.422;2023-04-15T05:23:29;13.38;;;7.78;;
64842;SDS011;51310;52.198;5.422;2023-04-15T05:25:55;14.27;;;8.33;;
64842;SDS011;51310;52.198;5.422;2023-04-15T05:28:20;14.37;;;7.87;;
64842;SDS011;51310;52.198;5.422;2023-04-15T05:30:46;14.03;;;7.63;;
64842;SDS011;51310;52.198;5.422;2023-04-15T05:33:12;16.40;;;8.13;;
64842;SDS011;51310;52.198;5.422;2023-04-15T05:35:38;14.00;;;7.47;;
64842;SDS011;51310;52.198;5.422;2023-04-15T05:38:03;13.47;;;7.50;;
64842;SDS011;51310;52.198;5.422;2023-04-15T05:40:29;13.25;;;8.02;;
64842;SDS011;51310;52.198;5.422;2023-04-15T05:42:55;13.55;;;8.23;;
64842;SDS011;51310;52.198;5.422;2023-04-15T05:45:21;13.77;;;7.80;;
64842;SDS011;51310;52.198;5.422;2023-04-15T05:47:47;11.75;;;6.85;;
64842;SDS011;51310;52.198;5.422;2023-04-15T05:50:14;14.85;;;7.88;;
64842;SDS011;51310;52.198;5.422;2023-04-15T05:52:40;12.02;;;8.13;;
64842;SDS011;51310;52.198;5.422;2023-04-15T05:55:06;13.88;;;8.20;;
64842;SDS011;51310;52.198;5.422;2023-04-15T05:57:32;12.13;;;7.28;;
64842;SDS011;51310;52.198;5.422;2023-04-15T05:59:58;15.17;;;8.07;;
64842;SDS011;51310;52.198;5.422;2023-04-15T06:02:23;18.07;;;8.67;;
64842;SDS011;51310;52.198;5.422;2023-04-15T06:04:50;12.93;;;8.48;;
64842;SDS011;51310;52.198;5.422;2023-04-15T06:07:16;12.35;;;8.13;;
64842;SDS011;51310;52.198;5.422;2023-04-15T06:09:41;14.57;;;7.88;;
64842;SDS011;51310;52.198;5.422;2023-04-15T06:12:08;14.95;;;9.35;;
64842;SDS011;51310;52.198;5.422;2023-04-15T06:14:36;13.20;;;8.65;;
64842;SDS011;51310;52.198;5.422;2023-04-15T06:17:03;14.60;;;8.55;;
64842;SDS011;51310;52.198;5.422;2023-04-15T06:19:29;17.27;;;9.33;;
64842;SDS011;51310;52.198;5.422;2023-04-15T06:21:55;16.37;;;9.10;;
64842;SDS011;51310;52.198;5.422;2023-04-15T06:24:20;15.87;;;10.00;;
64842;SDS011;51310;52.198;5.422;2023-04-15T06:26:46;15.93;;;9.77;;
64842;SDS011;51310;52.198;5.422;2023-04-15T06:29:12;14.07;;;9.10;;
64842;SDS011;51310;52.198;5.422;2023-04-15T06:31:38;14.52;;;9.38;;
64842;SDS011;51310;52.198;5.422;2023-04-15T06:34:03;15.30;;;10.10;;
64842;SDS011;51310;52.198;5.422;2023-04-15T06:36:29;14.20;;;9.52;;
64842;SDS011;51310;52.198;5.422;2023-04-15T06:38:56;16.88;;;9.77;;
64842;SDS011;51310;52.198;5.422;2023-04-15T06:41:22;17.63;;;10.13;;
64842;SDS011;51310;52.198;5.422;2023-04-15T06:43:48;17.77;;;10.30;;
64842;SDS011;51310;52.198;5.422;2023-04-15T06:46:13;16.02;;;10.77;;
64842;SDS011;51310;52.198;5.422;2023-04-15T06:48:39;16.73;;;9.70;;
64842;SDS011;51310;52.198;5.422;2023-04-15T06:51:05;15.40;;;9.53;;
64842;SDS011;51310;52.198;5.422;2023-04-15T06:53:31;17.38;;;10.95;;
64842;SDS011;51310;52.198;5.422;2023-04-15T06:55:56;14.45;;;9.57;;
64842;SDS011;51310;52.198;5.422;2023-04-15T06:58:22;15.30;;;9.77;;
64842;SDS011;51310;52.198;5.422;2023-04-15T07:00:48;14.43;;;9.48;;
64842;SDS011;51310;52.198;5.422;2023-04-15T07:03:13;19.13;;;10.65;;
64842;SDS011;51310;52.198;5.422;2023-04-15T07:05:39;15.35;;;10.18;;
64842;SDS011;51310;52.198;5.422;2023-04-15T07:08:05;14.80;;;9.50;;
64842;SDS011;51310;52.198;5.422;2023-04-15T07:10:32;15.05;;;9.68;;
64842;SDS011;51310;52.198;5.422;2023-04-15T07:12:58;18.42;;;10.93;;
64842;SDS011;51310;52.198;5.422;2023-04-15T07:15:25;17.23;;;9.93;;
64842;SDS011;51310;52.198;5.422;2023-04-15T07:17:51;15.77;;;10.30;;
64842;SDS011;51310;52.198;5.422;2023-04-15T07:20:17;16.38;;;10.55;;
64842;SDS011;51310;52.198;5.422;2023-04-15T07:22:43;15.23;;;9.70;;
64842;SDS011;51310;52.198;5.422;2023-04-15T07:25:08;11.77;;;8.73;;
64842;SDS011;51310;52.198;5.422;2023-04-15T07:27:34;15.03;;;9.50;;
64842;SDS011;51310;52.198;5.422;2023-04-15T07:30:01;16.52;;;9.45;;
64842;SDS011;51310;52.198;5.422;2023-04-15T07:32:26;15.93;;;9.77;;
64842;SDS011;51310;52.198;5.422;2023-04-15T07:34:52;13.90;;;8.83;;
64842;SDS011;51310;52.198;5.422;2023-04-15T07:37:18;13.20;;;9.00;;
64842;SDS011;51310;52.198;5.422;2023-04-15T07:39:44;14.67;;;9.33;;
64842;SDS011;51310;52.198;5.422;2023-04-15T07:42:09;15.00;;;8.87;;
64842;SDS011;51310;52.198;5.422;2023-04-15T07:44:35;16.95;;;8.65;;
64842;SDS011;51310;52.198;5.422;2023-04-15T07:47:01;13.73;;;9.27;;
64842;SDS011;51310;52.198;5.422;2023-04-15T07:49:27;16.27;;;9.10;;
64842;SDS011;51310;52.198;5.422;2023-04-15T07:51:53;13.80;;;8.07;;
64842;SDS011;51310;52.198;5.422;2023-04-15T07:54:19;12.43;;;8.18;;
64842;SDS011;51310;52.198;5.422;2023-04-15T07:56:44;12.23;;;8.18;;
64842;SDS011;51310;52.198;5.422;2023-04-15T07:59:10;13.20;;;7.80;;
64842;SDS011;51310;52.198;5.422;2023-04-15T08:01:37;13.43;;;7.68;;
64842;SDS011;51310;52.198;5.422;2023-04-15T08:04:03;9.60;;;6.55;;
64842;SDS011;51310;52.198;5.422;2023-04-15T08:06:28;11.82;;;6.53;;
64842;SDS011;51310;52.198;5.422;2023-04-15T08:08:54;9.02;;;6.13;;
64842;SDS011;51310;52.198;5.422;2023-04-15T08:11:20;9.25;;;6.45;;
64842;SDS011;51310;52.198;5.422;2023-04-15T08:13:47;8.63;;;5.65;;
64842;SDS011;51310;52.198;5.422;2023-04-15T08:16:20;10.57;;;6.00;;
64842;SDS011;51310;52.198;5.422;2023-04-15T08:18:48;11.57;;;6.55;;
64842;SDS011;51310;52.198;5.422;2023-04-15T08:21:16;13.27;;;6.97;;
64842;SDS011;51310;52.198;5.422;2023-04-15T08:23:44;10.57;;;6.95;;
64842;SDS011;51310;52.198;5.422;2023-04-15T08:26:12;12.20;;;7.38;;
64842;SDS011;51310;52.198;5.422;2023-04-15T08:28:39;11.00;;;7.40;;
64842;SDS011;51310;52.198;5.422;2023-04-15T08:31:06;11.00;;;7.50;;
64842;SDS011;51310;52.198;5.422;2023-04-15T08:33:33;13.77;;;7.28;;
64842;SDS011;51310;52.198;5.422;2023-04-15T08:35:59;11.50;;;6.60;;
64842;SDS011;51310;52.198;5.422;2023-04-15T08:38:24;11.23;;;6.43;;
64842;SDS011;51310;52.198;5.422;2023-04-15T08:40:50;8.77;;;6.07;;
64842;SDS011;51310;52.198;5.422;2023-04-15T08:43:23;9.03;;;6.10;;
64842;SDS011;51310;52.198;5.422;2023-04-15T08:45:54;12.07;;;6.20;;
64842;SDS011;51310;52.198;5.422;2023-04-15T08:48:23;10.15;;;6.47;;
64842;SDS011;51310;52.198;5.422;2023-04-15T08:50:53;9.15;;;5.13;;
64842;SDS011;51310;52.198;5.422;2023-04-15T08:53:19;9.65;;;5.30;;
64842;SDS011;51310;52.198;5.422;2023-04-15T08:55:46;9.00;;;5.53;;
64842;SDS011;51310;52.198;5.422;2023-04-15T08:58:20;8.93;;;5.00;;
64842;SDS011;51310;52.198;5.422;2023-04-15T09:00:46;8.30;;;4.70;;
64842;SDS011;51310;52.198;5.422;2023-04-15T09:03:12;11.63;;;4.83;;
64842;SDS011;51310;52.198;5.422;2023-04-15T09:05:39;7.22;;;4.00;;
64842;SDS011;51310;52.198;5.422;2023-04-15T09:08:05;6.13;;;3.90;;
64842;SDS011;51310;52.198;5.422;2023-04-15T09:10:31;6.73;;;4.33;;
64842;SDS011;51310;52.198;5.422;2023-04-15T09:12:57;5.00;;;3.47;;
64842;SDS011;51310;52.198;5.422;2023-04-15T09:15:26;6.93;;;4.40;;
64842;SDS011;51310;52.198;5.422;2023-04-15T09:17:53;6.57;;;3.85;;
64842;SDS011;51310;52.198;5.422;2023-04-15T09:20:21;6.93;;;3.77;;
64842;SDS011;51310;52.198;5.422;2023-04-15T09:22:47;7.47;;;4.00;;
64842;SDS011;51310;52.198;5.422;2023-04-15T09:27:49;8.52;;;5.10;;
64842;SDS011;51310;52.198;5.422;2023-04-15T09:30:26;9.23;;;4.80;;
64842;SDS011;51310;52.198;5.422;2023-04-15T09:32:57;7.80;;;4.65;;
64842;SDS011;51310;52.198;5.422;2023-04-15T09:35:26;10.02;;;5.00;;
64842;SDS011;51310;52.198;5.422;2023-04-15T09:37:53;8.57;;;4.22;;
64842;SDS011;51310;52.198;5.422;2023-04-15T09:40:34;8.20;;;4.32;;
64842;SDS011;51310;52.198;5.422;2023-04-15T09:43:06;12.27;;;5.55;;
64842;SDS011;51310;52.198;5.422;2023-04-15T09:45:36;8.30;;;4.82;;
64842;SDS011;51310;52.198;5.422;2023-04-15T09:48:22;7.38;;;4.57;;
64842;SDS011;51310;52.198;5.422;2023-04-15T09:50:51;8.93;;;5.30;;
64842;SDS011;51310;52.198;5.422;2023-04-15T09:53:22;9.43;;;4.90;;
64842;SDS011;51310;52.198;5.422;2023-04-15T09:55:49;8.23;;;5.23;;
64842;SDS011;51310;52.198;5.422;2023-04-15T09:58:26;4.25;;;3.33;;
64842;SDS011;51310;52.198;5.422;2023-04-15T10:00:57;6.88;;;3.38;;
64842;SDS011;51310;52.198;5.422;2023-04-15T10:03:29;3.97;;;2.67;;
64842;SDS011;51310;52.198;5.422;2023-04-15T10:05:59;4.55;;;3.13;;
64842;SDS011;51310;52.198;5.422;2023-04-15T10:08:26;5.03;;;2.95;;
64842;SDS011;51310;52.198;5.422;2023-04-15T10:10:55;5.63;;;2.58;;
64842;SDS011;51310;52.198;5.422;2023-04-15T10:13:25;4.20;;;2.87;;
64842;SDS011;51310;52.198;5.422;2023-04-15T10:18:25;4.28;;;2.72;;
64842;SDS011;51310;52.198;5.422;2023-04-15T10:20:53;5.77;;;3.17;;
64842;SDS011;51310;52.198;5.422;2023-04-15T10:23:19;5.20;;;3.85;;
64842;SDS011;51310;52.198;5.422;2023-04-15T10:25:50;8.00;;;3.13;;
64842;SDS011;51310;52.198;5.422;2023-04-15T10:28:20;3.55;;;2.58;;
64842;SDS011;51310;52.198;5.422;2023-04-15T10:30:47;3.70;;;2.73;;
64842;SDS011;51310;52.198;5.422;2023-04-15T10:33:14;5.72;;;3.25;;
64842;SDS011;51310;52.198;5.422;2023-04-15T10:35:44;6.90;;;3.40;;
64842;SDS011;51310;52.198;5.422;2023-04-15T10:43:55;5.15;;;3.00;;
64842;SDS011;51310;52.198;5.422;2023-04-15T10:46:36;5.75;;;3.30;;
64842;SDS011;51310;52.198;5.422;2023-04-15T10:49:16;5.03;;;3.05;;
64842;SDS011;51310;52.198;5.422;2023-04-15T10:51:50;5.37;;;3.10;;
64842;SDS011;51310;52.198;5.422;2023-04-15T10:54:31;5.75;;;2.60;;
64842;SDS011;51310;52.198;5.422;2023-04-15T10:59:29;3.92;;;2.88;;
64842;SDS011;51310;52.198;5.422;2023-04-15T11:02:01;3.47;;;2.57;;
64842;SDS011;51310;52.198;5.422;2023-04-15T11:04:50;5.70;;;2.47;;
64842;SDS011;51310;52.198;5.422;2023-04-15T11:07:36;4.63;;;2.22;;
64842;SDS011;51310;52.198;5.422;2023-04-15T11:12:50;7.07;;;2.65;;
64842;SDS011;51310;52.198;5.422;2023-04-15T11:16:01;4.85;;;2.30;;
64842;SDS011;51310;52.198;5.422;2023-04-15T11:20:37;4.60;;;3.08;;
64842;SDS011;51310;52.198;5.422;2023-04-15T11:23:07;4.78;;;3.08;;
64842;SDS011;51310;52.198;5.422;2023-04-15T11:25:34;6.03;;;2.60;;
64842;SDS011;51310;52.198;5.422;2023-04-15T11:28:02;3.80;;;2.65;;
64842;SDS011;51310;52.198;5.422;2023-04-15T11:30:31;5.05;;;2.70;;
64842;SDS011;51310;52.198;5.422;2023-04-15T11:33:00;3.58;;;2.38;;
64842;SDS011;51310;52.198;5.422;2023-04-15T11:35:29;4.25;;;2.45;;
64842;SDS011;51310;52.198;5.422;2023-04-15T11:37:55;6.03;;;2.77;;
64842;SDS011;51310;52.198;5.422;2023-04-15T11:40:23;7.93;;;3.23;;
64842;SDS011;51310;52.198;5.422;2023-04-15T11:43:03;5.53;;;3.08;;
64842;SDS011;51310;52.198;5.422;2023-04-15T11:45:46;4.43;;;2.50;;
64842;SDS011;51310;52.198;5.422;2023-04-15T11:48:24;5.63;;;2.50;;
64842;SDS011;51310;52.198;5.422;2023-04-15T11:50:57;5.77;;;2.67;;
64842;SDS011;51310;52.198;5.422;2023-04-15T11:53:35;4.30;;;2.53;;
64842;SDS011;51310;52.198;5.422;2023-04-15T11:56:19;4.00;;;2.60;;
64842;SDS011;51310;52.198;5.422;2023-04-15T11:58:47;5.43;;;3.33;;
64842;SDS011;51310;52.198;5.422;2023-04-15T12:01:17;7.25;;;2.60;;
64842;SDS011;51310;52.198;5.422;2023-04-15T12:03:46;4.25;;;2.25;;
64842;SDS011;51310;52.198;5.422;2023-04-15T12:13:55;4.10;;;1.60;;
64842;SDS011;51310;52.198;5.422;2023-04-15T12:16:30;5.22;;;1.80;;
64842;SDS011;51310;52.198;5.422;2023-04-15T12:18:59;2.80;;;1.45;;
64842;SDS011;51310;52.198;5.422;2023-04-15T12:21:32;4.95;;;1.95;;
64842;SDS011;51310;52.198;5.422;2023-04-15T12:24:01;4.03;;;1.65;;
64842;SDS011;51310;52.198;5.422;2023-04-15T12:26:33;3.92;;;1.63;;
64842;SDS011;51310;52.198;5.422;2023-04-15T12:29:10;6.10;;;2.15;;
64842;SDS011;51310;52.198;5.422;2023-04-15T12:31:53;4.88;;;2.38;;
64842;SDS011;51310;52.198;5.422;2023-04-15T12:34:35;5.65;;;2.30;;
64842;SDS011;51310;52.198;5.422;2023-04-15T12:37:09;5.35;;;2.40;;
64842;SDS011;51310;52.198;5.422;2023-04-15T12:39:41;4.50;;;2.03;;
64842;SDS011;51310;52.198;5.422;2023-04-15T12:42:09;4.45;;;1.92;;
64842;SDS011;51310;52.198;5.422;2023-04-15T12:44:36;4.97;;;2.25;;
64842;SDS011;51310;52.198;5.422;2023-04-15T12:47:03;8.45;;;2.30;;
64842;SDS011;51310;52.198;5.422;2023-04-15T12:49:29;4.23;;;1.80;;
64842;SDS011;51310;52.198;5.422;2023-04-15T12:51:57;4.40;;;2.42;;
64842;SDS011;51310;52.198;5.422;2023-04-15T12:54:25;4.00;;;1.88;;
64842;SDS011;51310;52.198;5.422;2023-04-15T12:56:52;4.60;;;1.85;;
64842;SDS011;51310;52.198;5.422;2023-04-15T12:59:18;5.45;;;2.20;;
64842;SDS011;51310;52.198;5.422;2023-04-15T13:01:46;2.63;;;1.77;;
64842;SDS011;51310;52.198;5.422;2023-04-15T13:04:13;5.40;;;2.15;;
64842;SDS011;51310;52.198;5.422;2023-04-15T13:06:40;5.20;;;2.05;;
64842;SDS011;51310;52.198;5.422;2023-04-15T13:09:06;4.30;;;2.05;;
64842;SDS011;51310;52.198;5.422;2023-04-15T13:11:32;4.50;;;1.70;;
64842;SDS011;51310;52.198;5.422;2023-04-15T13:14:02;4.25;;;2.00;;
64842;SDS011;51310;52.198;5.422;2023-04-15T13:16:30;5.75;;;2.17;;
64842;SDS011;51310;52.198;5.422;2023-04-15T13:18:57;5.32;;;2.20;;
64842;SDS011;51310;52.198;5.422;2023-04-15T13:21:24;4.03;;;1.70;;
64842;SDS011;51310;52.198;5.422;2023-04-15T13:23:51;7.43;;;2.30;;
64842;SDS011;51310;52.198;5.422;2023-04-15T13:26:17;4.45;;;1.88;;
64842;SDS011;51310;52.198;5.422;2023-04-15T13:28:43;4.20;;;1.65;;
64842;SDS011;51310;52.198;5.422;2023-04-15T13:31:09;4.68;;;2.03;;
64842;SDS011;51310;52.198;5.422;2023-04-15T13:33:35;3.20;;;1.65;;
64842;SDS011;51310;52.198;5.422;2023-04-15T13:36:01;3.65;;;1.63;;
64842;SDS011;51310;52.198;5.422;2023-04-15T13:38:27;3.95;;;1.73;;
64842;SDS011;51310;52.198;5.422;2023-04-15T13:40:52;6.15;;;2.03;;
64842;SDS011;51310;52.198;5.422;2023-04-15T13:43:18;4.13;;;1.40;;
64842;SDS011;51310;52.198;5.422;2023-04-15T13:45:45;3.70;;;1.42;;
64842;SDS011;51310;52.198;5.422;2023-04-15T13:48:11;4.53;;;1.35;;
64842;SDS011;51310;52.198;5.422;2023-04-15T13:50:37;3.50;;;1.50;;
64842;SDS011;51310;52.198;5.422;2023-04-15T13:53:02;6.38;;;1.33;;
64842;SDS011;51310;52.198;5.422;2023-04-15T13:55:28;4.20;;;1.00;;
64842;SDS011;51310;52.198;5.422;2023-04-15T13:57:55;3.17;;;1.17;;
64842;SDS011;51310;52.198;5.422;2023-04-15T14:00:21;5.70;;;1.65;;
64842;SDS011;51310;52.198;5.422;2023-04-15T14:02:46;6.35;;;1.20;;
64842;SDS011;51310;52.198;5.422;2023-04-15T14:05:12;3.28;;;1.27;;
64842;SDS011;51310;52.198;5.422;2023-04-15T14:07:38;3.45;;;1.58;;
64842;SDS011;51310;52.198;5.422;2023-04-15T14:10:04;2.90;;;1.60;;
64842;SDS011;51310;52.198;5.422;2023-04-15T14:12:30;5.18;;;1.50;;
64842;SDS011;51310;52.198;5.422;2023-04-15T14:14:56;4.22;;;1.50;;
64842;SDS011;51310;52.198;5.422;2023-04-15T14:17:21;5.07;;;2.50;;
64842;SDS011;51310;52.198;5.422;2023-04-15T14:19:47;8.23;;;1.73;;
64842;SDS011;51310;52.198;5.422;2023-04-15T14:22:13;3.50;;;1.97;;
64842;SDS011;51310;52.198;5.422;2023-04-15T14:24:39;4.27;;;2.07;;
64842;SDS011;51310;52.198;5.422;2023-04-15T14:27:05;4.97;;;2.17;;
64842;SDS011;51310;52.198;5.422;2023-04-15T14:29:32;6.70;;;2.05;;
64842;SDS011;51310;52.198;5.422;2023-04-15T14:31:58;6.27;;;1.90;;
64842;SDS011;51310;52.198;5.422;2023-04-15T14:34:24;7.33;;;2.10;;
64842;SDS011;51310;52.198;5.422;2023-04-15T14:36:50;6.43;;;1.63;;
64842;SDS011;51310;52.198;5.422;2023-04-15T14:39:17;4.90;;;1.92;;
64842;SDS011;51310;52.198;5.422;2023-04-15T14:41:43;5.78;;;2.15;;
64842;SDS011;51310;52.198;5.422;2023-04-15T14:44:10;6.97;;;1.37;;
64842;SDS011;51310;52.198;5.422;2023-04-15T14:46:36;4.63;;;1.50;;
64842;SDS011;51310;52.198;5.422;2023-04-15T14:49:03;6.07;;;1.42;;
64842;SDS011;51310;52.198;5.422;2023-04-15T14:51:29;5.15;;;1.55;;
64842;SDS011;51310;52.198;5.422;2023-04-15T14:53:55;7.97;;;1.75;;
64842;SDS011;51310;52.198;5.422;2023-04-15T14:56:21;6.05;;;1.60;;
64842;SDS011;51310;52.198;5.422;2023-04-15T14:58:47;7.55;;;1.83;;
64842;SDS011;51310;52.198;5.422;2023-04-15T15:01:13;4.55;;;1.30;;
64842;SDS011;51310;52.198;5.422;2023-04-15T15:03:39;9.00;;;1.70;;
64842;SDS011;51310;52.198;5.422;2023-04-15T15:06:05;6.55;;;1.83;;
64842;SDS011;51310;52.198;5.422;2023-04-15T15:08:31;10.00;;;1.52;;